Cleveland, North Dakota
Current Conditions -  °F | °C
As of 8:56 AM on Wednesday 22 Oct 2014 (Local Time) from KJMS Reporting Station
Clear Clear  
Wind Chill: 54°   Ceiling: Unl
Heat Index: 54°   Visibility: 10mi
Dew Point: 41°   Wind: 17mph
Humidity: 62%   Direction: 180°S
Pressure: 29.78"   Gusts: 26mph
Location:  46.89°N, 99.12°W
Report Text: KJMS 221356Z AUTO 18015G23KT 10SM CLR 12/05 A2978 RMK AO2 SLP086 T01220050
Loading
Personal Weather Stations






























Interactive Weather Map
Tropical Storm Tracking
New forecast layout! Learn more

10-Day Weather Forecast

Advertisements
Track Severe Weather on mobile